createdAt,value
2018-12-20T00:01:18.375Z,100.00
2018-12-20T00:03:47.864Z,100.00
2018-12-20T00:06:17.285Z,100.00
2018-12-20T00:08:46.687Z,100.00
2018-12-20T00:11:15.920Z,100.00
2018-12-20T00:13:45.210Z,100.00
2018-12-20T00:16:14.739Z,100.00
2018-12-20T00:18:44.069Z,100.00
2018-12-20T00:21:13.442Z,100.00
2018-12-20T00:23:42.695Z,100.00
2018-12-20T00:26:12.536Z,100.00
2018-12-20T00:28:42.340Z,100.00
2018-12-20T00:31:13.655Z,100.00
2018-12-20T00:33:43.066Z,100.00
2018-12-20T00:36:12.667Z,100.00
2018-12-20T00:38:42.049Z,100.00
2018-12-20T00:41:11.441Z,100.00
2018-12-20T00:43:40.788Z,100.00
2018-12-20T00:46:09.987Z,100.00
2018-12-20T00:48:39.261Z,100.00
2018-12-20T00:51:08.661Z,100.00
2018-12-20T00:53:37.856Z,100.00
2018-12-20T00:56:07.137Z,100.00
2018-12-20T00:58:36.544Z,100.00
2018-12-20T01:01:05.944Z,100.00
2018-12-20T01:03:35.434Z,100.00
2018-12-20T01:06:05.534Z,100.00
2018-12-20T01:08:34.859Z,100.00
2018-12-20T01:11:04.881Z,100.00
2018-12-20T01:13:34.253Z,100.00
2018-12-20T01:16:03.594Z,100.00
2018-12-20T01:18:32.891Z,100.00
2018-12-20T01:21:02.389Z,100.00
2018-12-20T01:23:31.654Z,100.00
2018-12-20T01:26:01.012Z,100.00
2018-12-20T01:28:30.299Z,100.00
2018-12-20T01:30:59.697Z,100.00
2018-12-20T01:33:29.061Z,100.00
2018-12-20T01:35:58.389Z,100.00
2018-12-20T01:38:27.826Z,100.00
2018-12-20T01:40:57.066Z,100.00
2018-12-20T01:43:26.921Z,100.00
2018-12-20T01:45:56.320Z,100.00
2018-12-20T01:48:25.637Z,100.00
2018-12-20T01:50:54.961Z,100.00
2018-12-20T01:53:24.266Z,100.00
2018-12-20T01:55:53.640Z,100.00
2018-12-20T01:58:23.159Z,100.00
2018-12-20T02:00:52.441Z,100.00
2018-12-20T02:03:21.731Z,100.00
2018-12-20T02:05:51.208Z,100.00
2018-12-20T02:08:20.518Z,100.00
2018-12-20T02:10:49.736Z,100.00
2018-12-20T02:13:19.132Z,100.00
2018-12-20T02:15:48.620Z,100.00
2018-12-20T02:18:18.062Z,100.00
2018-12-20T02:20:50.244Z,100.00
2018-12-20T02:23:19.429Z,100.00
2018-12-20T02:25:48.787Z,100.00
2018-12-20T02:28:18.211Z,100.00
2018-12-20T02:30:47.543Z,100.00
2018-12-20T02:33:16.778Z,100.00
2018-12-20T02:35:46.359Z,100.00
2018-12-20T02:38:15.914Z,100.00
2018-12-20T02:40:45.292Z,100.00
2018-12-20T02:43:14.871Z,100.00
2018-12-20T02:45:44.359Z,100.00
2018-12-20T02:48:13.615Z,100.00
2018-12-20T02:50:42.865Z,100.00
2018-12-20T02:53:12.181Z,100.00
2018-12-20T02:55:41.497Z,100.00
2018-12-20T02:58:11.149Z,100.00
2018-12-20T03:00:40.569Z,100.00
2018-12-20T03:03:09.934Z,100.00
2018-12-20T03:05:39.350Z,100.00
2018-12-20T03:08:08.887Z,100.00
2018-12-20T03:10:38.379Z,100.00
2018-12-20T03:13:07.913Z,100.00
2018-12-20T03:15:37.235Z,100.00
2018-12-20T03:18:06.711Z,100.00
2018-12-20T03:20:36.124Z,100.00
2018-12-20T03:23:05.547Z,100.00
2018-12-20T03:25:34.800Z,100.00
2018-12-20T03:28:04.127Z,100.00
2018-12-20T03:30:33.480Z,100.00
2018-12-20T03:33:02.995Z,100.00
2018-12-20T03:35:32.561Z,100.00
2018-12-20T03:38:01.761Z,100.00
2018-12-20T03:40:31.197Z,100.00
2018-12-20T03:43:00.474Z,100.00
2018-12-20T03:45:29.868Z,100.00
2018-12-20T03:47:59.351Z,100.00
2018-12-20T03:50:28.977Z,100.00
2018-12-20T03:52:58.310Z,100.00
2018-12-20T03:55:27.831Z,100.00
2018-12-20T03:57:57.095Z,100.00
2018-12-20T04:00:26.428Z,100.00
2018-12-20T04:02:55.822Z,100.00
2018-12-20T04:05:25.116Z,100.00
2018-12-20T04:07:54.494Z,100.00
2018-12-20T04:10:23.819Z,100.00
2018-12-20T04:12:53.004Z,100.00
2018-12-20T04:15:22.199Z,100.00
2018-12-20T04:17:51.536Z,100.00
2018-12-20T04:20:20.876Z,100.00
2018-12-20T04:22:50.067Z,100.00
2018-12-20T04:25:19.262Z,100.00
2018-12-20T04:27:48.558Z,100.00
2018-12-20T04:30:17.961Z,100.00
2018-12-20T04:32:47.198Z,100.00
2018-12-20T04:35:16.559Z,100.00
2018-12-20T04:37:45.778Z,100.00
2018-12-20T04:40:15.194Z,100.00
2018-12-20T04:42:44.859Z,100.00
2018-12-20T04:45:14.264Z,100.00
2018-12-20T04:47:43.583Z,100.00
2018-12-20T04:50:12.979Z,100.00
2018-12-20T04:52:42.351Z,100.00
2018-12-20T04:55:11.611Z,100.00
2018-12-20T04:57:41.107Z,100.00
2018-12-20T05:00:11.918Z,100.00
2018-12-20T05:02:41.467Z,100.00
2018-12-20T05:05:10.855Z,100.00
2018-12-20T05:07:40.243Z,100.00
2018-12-20T05:10:09.636Z,100.00
2018-12-20T05:12:38.943Z,100.00
2018-12-20T05:15:08.516Z,100.00
2018-12-20T05:17:38.536Z,100.00
2018-12-20T05:20:08.156Z,100.00
2018-12-20T05:22:37.515Z,100.00
2018-12-20T05:25:07.223Z,100.00
2018-12-20T05:27:36.542Z,100.00
2018-12-20T05:30:07.455Z,100.00
2018-12-20T05:32:36.881Z,100.00
2018-12-20T05:35:06.284Z,100.00
2018-12-20T05:37:35.829Z,100.00
2018-12-20T05:40:05.537Z,100.00
2018-12-20T05:42:34.975Z,100.00
2018-12-20T05:45:04.779Z,100.00
2018-12-20T05:47:34.243Z,100.00
2018-12-20T05:50:03.562Z,100.00
2018-12-20T05:52:33.040Z,100.00
2018-12-20T05:55:02.427Z,100.00
2018-12-20T05:57:32.534Z,100.00
2018-12-20T06:00:02.159Z,100.00
2018-12-20T06:02:31.746Z,100.00
2018-12-20T06:05:01.373Z,100.00
2018-12-20T06:07:30.813Z,100.00
2018-12-20T06:10:00.060Z,100.00
2018-12-20T06:12:31.412Z,100.00
2018-12-20T06:15:00.786Z,100.00
2018-12-20T06:17:30.029Z,100.00
2018-12-20T06:19:59.441Z,100.00
2018-12-20T06:22:28.805Z,100.00
2018-12-20T06:24:58.025Z,100.00
2018-12-20T06:27:27.469Z,100.00
2018-12-20T06:29:56.707Z,100.00
2018-12-20T06:32:26.133Z,100.00
2018-12-20T06:34:55.324Z,100.00
2018-12-20T06:37:24.551Z,100.00
2018-12-20T06:39:53.880Z,100.00
2018-12-20T06:42:23.041Z,100.00
2018-12-20T06:44:52.229Z,100.00
2018-12-20T06:47:21.488Z,100.00
2018-12-20T06:49:50.703Z,100.00
2018-12-20T06:52:20.525Z,100.00
2018-12-20T06:54:49.776Z,100.00
2018-12-20T06:57:19.001Z,100.00
2018-12-20T06:59:48.203Z,100.00
2018-12-20T07:02:17.696Z,100.00
2018-12-20T07:04:47.010Z,100.00
2018-12-20T07:07:16.234Z,100.00
2018-12-20T07:09:45.495Z,100.00
2018-12-20T07:12:14.685Z,100.00
2018-12-20T07:14:43.979Z,100.00
2018-12-20T07:17:14.060Z,100.00
2018-12-20T07:19:43.308Z,100.00
2018-12-20T07:22:13.000Z,100.00
2018-12-20T07:24:42.563Z,100.00
2018-12-20T07:27:12.652Z,100.00
2018-12-20T07:29:42.436Z,100.00
2018-12-20T07:32:11.672Z,100.00
2018-12-20T07:34:47.758Z,100.00
2018-12-20T07:37:12.176Z,100.00
2018-12-20T07:39:41.409Z,100.00
2018-12-20T07:42:10.607Z,100.00
2018-12-20T07:44:39.810Z,100.00
2018-12-20T07:47:09.605Z,100.00
2018-12-20T07:49:38.841Z,100.00
2018-12-20T07:52:08.052Z,100.00
2018-12-20T07:54:37.347Z,100.00
2018-12-20T07:57:06.791Z,100.00
2018-12-20T07:59:35.984Z,100.00
2018-12-20T08:02:06.208Z,100.00
2018-12-20T08:04:35.472Z,100.00
2018-12-20T08:07:04.733Z,100.00
2018-12-20T08:09:34.001Z,100.00
2018-12-20T08:12:03.271Z,100.00
2018-12-20T08:14:32.576Z,100.00
2018-12-20T08:17:01.916Z,100.00
2018-12-20T08:19:36.355Z,100.00
2018-12-20T08:22:02.445Z,100.00
2018-12-20T08:24:31.783Z,100.00
2018-12-20T08:27:01.381Z,100.00
2018-12-20T08:29:30.635Z,100.00
2018-12-20T08:31:59.910Z,100.00
2018-12-20T08:34:29.114Z,100.00
2018-12-20T08:36:58.355Z,100.00
2018-12-20T08:39:27.532Z,100.00
2018-12-20T08:41:56.742Z,100.00
2018-12-20T08:44:25.956Z,100.00
2018-12-20T08:46:55.293Z,100.00
2018-12-20T08:49:25.293Z,100.00
2018-12-20T08:51:54.772Z,100.00
2018-12-20T08:54:24.240Z,100.00
2018-12-20T08:56:54.170Z,100.00
2018-12-20T08:59:23.496Z,100.00
2018-12-20T09:01:53.085Z,100.00
2018-12-20T09:04:22.288Z,100.00
2018-12-20T09:06:51.583Z,100.00
2018-12-20T09:09:20.779Z,100.00
2018-12-20T09:11:49.997Z,100.00
2018-12-20T09:14:19.195Z,100.00
2018-12-20T09:16:48.443Z,100.00
2018-12-20T09:19:18.536Z,100.00
2018-12-20T09:21:47.738Z,100.00
2018-12-20T09:24:16.998Z,100.00
2018-12-20T09:26:46.297Z,100.00
2018-12-20T09:29:15.545Z,99.67
2018-12-20T09:31:44.751Z,99.51
2018-12-20T09:34:13.925Z,96.29
2018-12-20T09:36:43.129Z,94.79
2018-12-20T09:39:12.442Z,94.89
2018-12-20T09:41:41.672Z,93.49
2018-12-20T09:44:10.928Z,93.36
2018-12-20T09:46:40.134Z,95.10
2018-12-20T09:49:09.341Z,94.72
2018-12-20T09:51:38.540Z,92.49
2018-12-20T09:54:07.798Z,92.53
2018-12-20T09:56:37.076Z,91.76
2018-12-20T09:59:06.262Z,90.70
2018-12-20T10:01:35.440Z,89.76
2018-12-20T10:04:04.692Z,89.24
2018-12-20T10:06:33.859Z,87.67
2018-12-20T10:09:03.320Z,87.95
2018-12-20T10:11:32.502Z,87.01
2018-12-20T10:14:01.720Z,87.48
2018-12-20T10:16:31.092Z,85.95
2018-12-20T10:19:00.288Z,87.66
2018-12-20T10:21:35.779Z,87.99
2018-12-20T10:24:05.116Z,87.98
2018-12-20T10:26:34.409Z,85.78
2018-12-20T10:29:03.773Z,85.34
2018-12-20T10:31:32.941Z,83.96
2018-12-20T10:34:02.236Z,85.79
2018-12-20T10:36:31.401Z,85.55
2018-12-20T10:39:00.660Z,82.92
2018-12-20T10:41:29.828Z,83.85
2018-12-20T10:43:59.024Z,83.39
2018-12-20T10:46:28.228Z,80.42
2018-12-20T10:48:57.430Z,80.98
2018-12-20T10:51:26.648Z,81.33
2018-12-20T10:53:55.835Z,82.89
2018-12-20T10:56:25.172Z,82.49
2018-12-20T10:58:54.332Z,81.02
2018-12-20T11:01:28.837Z,82.50
2018-12-20T11:04:03.347Z,83.04
2018-12-20T11:06:38.008Z,84.52
2018-12-20T11:09:13.750Z,83.38
2018-12-20T11:12:50.272Z,83.42
2018-12-20T11:15:19.488Z,84.62
2018-12-20T11:17:48.636Z,84.16
2018-12-20T11:20:17.894Z,83.91
2018-12-20T11:22:47.192Z,85.44
2018-12-20T11:25:16.344Z,85.07
2018-12-20T11:27:45.710Z,83.50
2018-12-20T11:30:14.908Z,82.24
2018-12-20T11:32:44.098Z,83.58
2018-12-20T11:35:13.393Z,85.94
2018-12-20T11:37:42.528Z,84.75
2018-12-20T11:40:11.724Z,84.26
2018-12-20T11:42:40.913Z,83.26
2018-12-20T11:45:10.260Z,84.49
2018-12-20T11:47:45.872Z,85.18
2018-12-20T11:50:10.647Z,83.60
2018-12-20T11:52:42.449Z,83.32
2018-12-20T11:55:11.045Z,83.33
2018-12-20T11:57:40.317Z,82.29
2018-12-20T12:00:11.808Z,83.16
2018-12-20T12:02:40.966Z,82.79
2018-12-20T12:05:10.240Z,82.62
2018-12-20T12:07:39.487Z,80.94
2018-12-20T12:10:08.820Z,82.68
2018-12-20T12:12:38.288Z,79.70
2018-12-20T12:15:08.400Z,80.88
2018-12-20T12:17:37.566Z,80.44
2018-12-20T12:20:08.480Z,79.78
2018-12-20T12:22:37.734Z,79.47
2018-12-20T12:25:08.180Z,79.12
2018-12-20T12:27:37.408Z,79.24
2018-12-20T12:30:09.259Z,80.98
2018-12-20T12:32:38.537Z,80.55
2018-12-20T12:35:07.776Z,79.20
2018-12-20T12:37:36.980Z,79.38
2018-12-20T12:40:07.521Z,80.55
2018-12-20T12:42:36.698Z,78.56
2018-12-20T12:45:06.628Z,78.32
2018-12-20T12:47:41.029Z,79.22
2018-12-20T12:50:10.297Z,78.72
2018-12-20T12:52:39.493Z,77.87
2018-12-20T12:55:08.850Z,78.62
2018-12-20T12:57:38.204Z,78.24
2018-12-20T13:00:08.936Z,79.33
2018-12-20T13:02:38.233Z,78.41
2018-12-20T13:05:07.865Z,79.64
2018-12-20T13:07:37.073Z,79.55
2018-12-20T13:10:07.006Z,79.35
2018-12-20T13:12:36.194Z,78.43
2018-12-20T13:15:06.496Z,78.19
2018-12-20T13:17:35.936Z,79.69
2018-12-20T13:20:06.411Z,79.06
2018-12-20T13:22:35.652Z,77.23
2018-12-20T13:25:06.286Z,78.07
2018-12-20T13:27:35.479Z,75.35
2018-12-20T13:30:06.896Z,73.88
2018-12-20T13:32:36.187Z,74.04
2018-12-20T13:35:05.597Z,74.11
2018-12-20T13:37:34.915Z,73.60
2018-12-20T13:40:04.752Z,74.74
2018-12-20T13:42:34.079Z,75.54
2018-12-20T13:45:03.537Z,76.51
2018-12-20T13:47:32.752Z,76.28
2018-12-20T13:50:02.421Z,78.13
2018-12-20T13:52:33.001Z,77.27
2018-12-20T13:55:02.450Z,76.17
2018-12-20T13:57:31.650Z,78.20
2018-12-20T14:00:00.887Z,77.95
2018-12-20T14:02:30.111Z,76.73
2018-12-20T14:04:59.305Z,76.70
2018-12-20T14:07:28.584Z,77.36
2018-12-20T14:09:58.039Z,78.55
2018-12-20T14:12:27.336Z,77.79
2018-12-20T14:14:56.707Z,78.38
2018-12-20T14:17:26.655Z,78.48
2018-12-20T14:19:55.965Z,78.22
2018-12-20T14:22:25.191Z,77.35
2018-12-20T14:24:54.442Z,78.44
2018-12-20T14:27:23.769Z,78.91
2018-12-20T14:29:53.228Z,77.72
2018-12-20T14:32:22.464Z,78.47
2018-12-20T14:34:52.055Z,79.14
2018-12-20T14:37:21.745Z,79.89
2018-12-20T14:39:51.145Z,80.03
2018-12-20T14:42:20.760Z,80.58
2018-12-20T14:44:50.028Z,81.02
2018-12-20T14:47:19.280Z,82.49
2018-12-20T14:49:48.606Z,84.15
2018-12-20T14:52:17.862Z,83.94
2018-12-20T14:54:47.206Z,85.51
2018-12-20T14:57:17.141Z,85.58
2018-12-20T14:59:46.393Z,86.54
2018-12-20T15:02:16.143Z,85.34
2018-12-20T15:04:45.480Z,84.42
2018-12-20T15:07:14.714Z,85.19
2018-12-20T15:09:43.908Z,85.53
2018-12-20T15:12:13.796Z,86.34
2018-12-20T15:14:43.873Z,86.04
2018-12-20T15:17:13.134Z,86.05
2018-12-20T15:19:42.420Z,85.54
2018-12-20T15:22:11.673Z,86.51
2018-12-20T15:24:41.008Z,86.93
2018-12-20T15:27:10.324Z,86.65
2018-12-20T15:29:39.590Z,87.73
2018-12-20T15:32:08.910Z,87.92
2018-12-20T15:34:38.174Z,87.84
2018-12-20T15:37:07.491Z,87.92
2018-12-20T15:39:36.668Z,88.37
2018-12-20T15:42:05.996Z,88.93
2018-12-20T15:44:35.335Z,89.28
2018-12-20T15:47:04.631Z,89.60
2018-12-20T15:49:41.813Z,89.93
2018-12-20T15:52:05.171Z,91.32
2018-12-20T15:54:34.489Z,91.10
2018-12-20T15:57:03.888Z,90.66
2018-12-20T15:59:33.213Z,91.06
2018-12-20T16:02:02.660Z,91.84
2018-12-20T16:04:32.310Z,92.44
2018-12-20T16:07:10.904Z,93.22
2018-12-20T16:09:40.348Z,93.88
2018-12-20T16:12:09.564Z,94.19
2018-12-20T16:14:38.820Z,94.89
2018-12-20T16:17:08.248Z,95.88
2018-12-20T16:19:37.513Z,98.00
2018-12-20T16:22:06.841Z,98.68
2018-12-20T16:24:36.122Z,98.48
2018-12-20T16:27:05.646Z,99.01
2018-12-20T16:29:35.063Z,99.50
2018-12-20T16:32:04.364Z,100.00
2018-12-20T16:34:33.644Z,99.89
2018-12-20T16:37:03.001Z,99.14
2018-12-20T16:39:32.339Z,98.85
2018-12-20T16:42:01.825Z,99.68
2018-12-20T16:44:31.229Z,99.90
2018-12-20T16:47:01.587Z,99.54
2018-12-20T16:49:30.828Z,99.38
2018-12-20T16:52:00.130Z,100.00
2018-12-20T16:54:29.555Z,100.00
2018-12-20T16:56:59.196Z,100.00
2018-12-20T16:59:28.400Z,100.00
2018-12-20T17:01:57.810Z,100.00
2018-12-20T17:04:27.059Z,100.00
2018-12-20T17:06:56.498Z,100.00
2018-12-20T17:09:25.848Z,100.00
2018-12-20T17:11:55.276Z,100.00
2018-12-20T17:14:24.663Z,100.00
2018-12-20T17:16:54.266Z,100.00
2018-12-20T17:19:23.490Z,100.00
2018-12-20T17:21:52.795Z,100.00
2018-12-20T17:24:22.140Z,100.00
2018-12-20T17:26:51.755Z,100.00
2018-12-20T17:29:22.121Z,100.00
2018-12-20T17:31:52.489Z,100.00
2018-12-20T17:34:21.805Z,100.00
2018-12-20T17:36:51.213Z,100.00
2018-12-20T17:39:21.075Z,100.00
2018-12-20T17:41:50.478Z,100.00
2018-12-20T17:44:19.779Z,100.00
2018-12-20T17:46:49.184Z,100.00
2018-12-20T17:49:18.694Z,99.77
2018-12-20T17:51:48.155Z,99.88
2018-12-20T17:54:17.557Z,99.02
2018-12-20T17:56:46.907Z,98.97
2018-12-20T17:59:16.263Z,98.77
2018-12-20T18:01:45.892Z,98.65
2018-12-20T18:04:15.186Z,99.32
2018-12-20T18:06:44.578Z,99.56
2018-12-20T18:09:14.300Z,99.96
2018-12-20T18:11:43.667Z,100.00
2018-12-20T18:14:13.089Z,100.00
2018-12-20T18:16:42.371Z,99.71
2018-12-20T18:19:12.470Z,98.86
2018-12-20T18:21:41.877Z,98.96
2018-12-20T18:24:11.251Z,98.60
2018-12-20T18:26:40.585Z,97.92
2018-12-20T18:29:10.333Z,97.95
2018-12-20T18:31:39.609Z,97.81
2018-12-20T18:34:08.899Z,97.56
2018-12-20T18:36:38.237Z,97.08
2018-12-20T18:39:08.312Z,96.93
2018-12-20T18:41:37.620Z,97.13
2018-12-20T18:44:06.872Z,95.90
2018-12-20T18:46:37.576Z,95.95
2018-12-20T18:49:07.265Z,96.72
2018-12-20T18:51:36.740Z,96.19
2018-12-20T18:54:06.124Z,96.86
2018-12-20T18:56:35.340Z,94.85
2018-12-20T18:59:05.383Z,95.90
2018-12-20T19:01:34.664Z,95.03
2018-12-20T19:04:04.142Z,94.26
2018-12-20T19:06:33.400Z,94.45
2018-12-20T19:09:03.310Z,94.21
2018-12-20T19:11:32.646Z,93.87
2018-12-20T19:14:02.925Z,93.62
2018-12-20T19:16:32.308Z,93.88
2018-12-20T19:19:03.811Z,93.85
2018-12-20T19:21:34.306Z,94.39
2018-12-20T19:24:03.665Z,95.41
2018-12-20T19:26:33.107Z,94.39
2018-12-20T19:29:02.368Z,93.82
2018-12-20T19:31:31.660Z,94.31
2018-12-20T19:34:00.989Z,94.12
2018-12-20T19:36:30.171Z,93.71
2018-12-20T19:39:00.039Z,93.55
2018-12-20T19:41:29.532Z,94.14
2018-12-20T19:43:58.776Z,94.38
2018-12-20T19:46:28.016Z,93.74
2018-12-20T19:48:57.245Z,93.87
2018-12-20T19:51:26.933Z,93.94
2018-12-20T19:53:56.274Z,93.61
2018-12-20T19:56:25.488Z,93.74
2018-12-20T19:58:55.366Z,93.46
2018-12-20T20:01:25.180Z,93.20
2018-12-20T20:03:54.504Z,93.16
2018-12-20T20:06:23.900Z,92.88
2018-12-20T20:08:53.482Z,92.78
2018-12-20T20:11:23.375Z,93.17
2018-12-20T20:13:52.900Z,92.67
2018-12-20T20:16:22.128Z,92.98
2018-12-20T20:18:51.419Z,93.19
2018-12-20T20:21:20.694Z,94.53
2018-12-20T20:23:49.918Z,95.92
2018-12-20T20:26:19.193Z,97.65
2018-12-20T20:28:49.275Z,97.51
2018-12-20T20:31:18.631Z,96.69
2018-12-20T20:33:48.009Z,97.32
2018-12-20T20:36:17.454Z,97.08
2018-12-20T20:38:46.740Z,96.73
2018-12-20T20:41:16.175Z,97.42
2018-12-20T20:43:45.499Z,97.75
2018-12-20T20:46:14.729Z,97.54
2018-12-20T20:48:43.902Z,98.54
2018-12-20T20:51:13.411Z,99.75
2018-12-20T20:53:42.633Z,100.00
2018-12-20T20:56:13.099Z,100.00
2018-12-20T20:58:42.431Z,100.00
2018-12-20T21:01:12.397Z,100.00
2018-12-20T21:03:41.720Z,100.00
2018-12-20T21:06:11.458Z,100.00
2018-12-20T21:08:41.031Z,100.00
2018-12-20T21:11:10.372Z,100.00
2018-12-20T21:13:40.129Z,100.00
2018-12-20T21:16:09.362Z,100.00
2018-12-20T21:18:38.740Z,100.00
2018-12-20T21:21:07.960Z,100.00
2018-12-20T21:23:37.199Z,100.00
2018-12-20T21:26:06.512Z,100.00
2018-12-20T21:28:36.279Z,100.00
2018-12-20T21:31:05.575Z,100.00
2018-12-20T21:33:34.893Z,100.00
2018-12-20T21:36:04.210Z,100.00
2018-12-20T21:38:33.685Z,100.00
2018-12-20T21:41:03.172Z,100.00
2018-12-20T21:43:32.713Z,100.00
2018-12-20T21:46:02.041Z,100.00
2018-12-20T21:48:31.356Z,100.00
2018-12-20T21:51:00.765Z,100.00
2018-12-20T21:53:30.451Z,100.00
2018-12-20T21:55:59.679Z,100.00
2018-12-20T21:58:29.399Z,100.00
2018-12-20T22:00:58.849Z,100.00
2018-12-20T22:03:28.184Z,100.00
2018-12-20T22:05:57.463Z,100.00
2018-12-20T22:08:26.689Z,100.00
2018-12-20T22:10:55.900Z,100.00
2018-12-20T22:13:25.157Z,100.00
2018-12-20T22:15:54.850Z,100.00
2018-12-20T22:18:24.045Z,100.00
2018-12-20T22:20:53.387Z,100.00
2018-12-20T22:23:22.996Z,100.00
2018-12-20T22:25:52.199Z,100.00
2018-12-20T22:28:21.446Z,100.00
2018-12-20T22:30:50.708Z,100.00
2018-12-20T22:33:20.355Z,100.00
2018-12-20T22:35:49.579Z,100.00
2018-12-20T22:38:18.834Z,100.00
2018-12-20T22:40:48.179Z,100.00
2018-12-20T22:43:17.398Z,100.00
2018-12-20T22:45:46.636Z,100.00
2018-12-20T22:48:16.420Z,100.00
2018-12-20T22:50:45.704Z,100.00
2018-12-20T22:53:15.015Z,100.00
2018-12-20T22:55:44.281Z,100.00
2018-12-20T22:58:13.513Z,100.00
2018-12-20T23:03:26.564Z,100.00
2018-12-20T23:05:55.810Z,100.00
2018-12-20T23:08:24.979Z,100.00
2018-12-20T23:10:54.303Z,100.00
2018-12-20T23:13:23.577Z,100.00
2018-12-20T23:15:52.716Z,100.00
2018-12-20T23:18:21.956Z,100.00
2018-12-20T23:20:51.860Z,100.00
2018-12-20T23:23:21.068Z,100.00
2018-12-20T23:25:50.224Z,100.00
2018-12-20T23:28:20.039Z,100.00
2018-12-20T23:30:49.185Z,100.00
2018-12-20T23:33:18.862Z,100.00
2018-12-20T23:35:48.060Z,100.00
2018-12-20T23:38:17.378Z,100.00
2018-12-20T23:40:46.556Z,100.00
2018-12-20T23:43:16.178Z,100.00
2018-12-20T23:45:45.983Z,100.00
2018-12-20T23:48:15.192Z,100.00
2018-12-20T23:50:44.340Z,100.00
2018-12-20T23:53:14.244Z,100.00
2018-12-20T23:55:43.488Z,100.00
2018-12-20T23:58:12.696Z,100.00
